createdAt,value
2018-07-27T00:00:57.303Z,917.53
2018-07-27T00:01:57.250Z,917.51
2018-07-27T00:02:57.218Z,917.53
2018-07-27T00:03:57.203Z,917.55
2018-07-27T00:04:57.175Z,917.51
2018-07-27T00:05:57.137Z,917.54
2018-07-27T00:06:57.115Z,917.57
2018-07-27T00:07:57.083Z,917.57
2018-07-27T00:08:57.139Z,917.58
2018-07-27T00:09:57.420Z,917.59
2018-07-27T00:10:56.980Z,917.62
2018-07-27T00:11:56.971Z,917.59
2018-07-27T00:12:56.911Z,917.58
2018-07-27T00:13:56.890Z,917.62
2018-07-27T00:14:56.846Z,917.61
2018-07-27T00:15:56.818Z,917.66
2018-07-27T00:16:57.035Z,917.67
2018-07-27T00:17:56.971Z,917.69
2018-07-27T00:18:56.728Z,917.69
2018-07-27T00:20:56.667Z,917.70
2018-07-27T00:21:56.641Z,917.68
2018-07-27T00:22:56.608Z,917.70
2018-07-27T00:23:56.562Z,917.67
2018-07-27T00:24:56.551Z,917.67
2018-07-27T00:25:56.813Z,917.69
2018-07-27T00:26:56.520Z,917.70
2018-07-27T00:27:56.452Z,917.67
2018-07-27T00:28:56.423Z,917.69
2018-07-27T00:29:56.378Z,917.66
2018-07-27T00:30:56.353Z,917.66
2018-07-27T00:31:56.339Z,917.67
2018-07-27T00:32:56.296Z,917.70
2018-07-27T00:33:56.272Z,917.73
2018-07-27T00:34:56.231Z,917.74
2018-07-27T00:35:56.203Z,917.74
2018-07-27T00:36:56.179Z,917.72
2018-07-27T00:37:56.181Z,917.77
2018-07-27T00:38:56.099Z,917.74
2018-07-27T00:39:56.059Z,917.72
2018-07-27T00:40:56.043Z,917.73
2018-07-27T00:41:56.004Z,917.76
2018-07-27T00:43:55.949Z,917.71
2018-07-27T00:44:55.900Z,917.68
2018-07-27T00:45:55.875Z,917.75
2018-07-27T00:46:55.841Z,917.73
2018-07-27T00:47:55.833Z,917.71
2018-07-27T00:48:55.786Z,917.76
2018-07-27T00:49:55.757Z,917.75
2018-07-27T00:50:55.726Z,917.72
2018-07-27T00:51:55.689Z,917.74
2018-07-27T00:52:55.659Z,917.70
2018-07-27T00:53:55.630Z,917.72
2018-07-27T00:54:55.589Z,917.70
2018-07-27T00:55:55.569Z,917.71
2018-07-27T00:56:55.550Z,917.74
2018-07-27T00:57:55.497Z,917.68
2018-07-27T00:58:55.474Z,917.70
2018-07-27T00:59:55.428Z,917.70
2018-07-27T01:00:55.414Z,917.72
2018-07-27T01:01:55.382Z,917.73
2018-07-27T01:02:55.350Z,917.73
2018-07-27T01:03:55.319Z,917.72
2018-07-27T01:04:55.339Z,917.72
2018-07-27T01:05:55.249Z,917.69
2018-07-27T01:06:55.215Z,917.69
2018-07-27T01:07:55.203Z,917.69
2018-07-27T01:08:55.151Z,917.69
2018-07-27T01:09:55.132Z,917.69
2018-07-27T01:10:55.095Z,917.68
2018-07-27T01:11:55.064Z,917.65
2018-07-27T01:12:55.026Z,917.62
2018-07-27T01:13:55.025Z,917.64
2018-07-27T01:14:54.963Z,917.63
2018-07-27T01:15:54.934Z,917.64
2018-07-27T01:16:54.902Z,917.63
2018-07-27T01:17:54.873Z,917.63
2018-07-27T01:18:54.841Z,917.71
2018-07-27T01:19:54.812Z,917.65
2018-07-27T01:20:54.786Z,917.67
2018-07-27T01:21:54.741Z,917.67
2018-07-27T01:22:54.722Z,917.71
2018-07-27T01:23:54.724Z,917.74
2018-07-27T01:24:54.662Z,917.75
2018-07-27T01:25:54.820Z,917.79
2018-07-27T01:26:54.592Z,917.75
2018-07-27T01:27:54.560Z,917.76
2018-07-27T01:28:54.540Z,917.77
2018-07-27T01:29:54.499Z,917.79
2018-07-27T01:30:54.468Z,917.78
2018-07-27T01:31:54.432Z,917.79
2018-07-27T01:32:54.401Z,917.79
2018-07-27T01:33:54.364Z,917.78
2018-07-27T01:34:54.475Z,917.77
2018-07-27T01:35:54.301Z,917.84
2018-07-27T01:36:54.265Z,917.81
2018-07-27T01:37:54.241Z,917.84
2018-07-27T01:38:54.208Z,917.77
2018-07-27T01:39:54.266Z,917.78
2018-07-27T01:40:54.133Z,917.78
2018-07-27T01:41:54.112Z,917.80
2018-07-27T01:42:54.079Z,917.79
2018-07-27T01:43:54.048Z,917.81
2018-07-27T01:44:54.021Z,917.85
2018-07-27T01:45:53.986Z,917.85
2018-07-27T01:46:53.975Z,917.87
2018-07-27T01:47:53.926Z,917.92
2018-07-27T01:48:53.901Z,917.91
2018-07-27T01:49:53.853Z,917.94
2018-07-27T01:50:53.838Z,917.97
2018-07-27T01:51:53.804Z,917.97
2018-07-27T01:52:53.774Z,917.98
2018-07-27T01:53:53.730Z,917.96
2018-07-27T01:54:53.719Z,917.94
2018-07-27T01:55:53.683Z,917.95
2018-07-27T01:56:53.635Z,917.94
2018-07-27T01:57:53.617Z,917.91
2018-07-27T01:58:53.576Z,917.96
2018-07-27T01:59:53.549Z,917.93
2018-07-27T02:00:53.507Z,917.95
2018-07-27T02:01:53.477Z,917.99
2018-07-27T02:02:53.440Z,917.96
2018-07-27T02:03:53.467Z,917.98
2018-07-27T02:04:53.388Z,918.01
2018-07-27T02:05:53.394Z,918.01
2018-07-27T02:06:53.472Z,918.02
2018-07-27T02:07:53.293Z,918.00
2018-07-27T02:08:53.271Z,918.00
2018-07-27T02:09:53.213Z,917.99
2018-07-27T02:10:53.185Z,918.04
2018-07-27T02:11:53.157Z,917.99
2018-07-27T02:12:53.181Z,918.00
2018-07-27T02:13:53.086Z,917.99
2018-07-27T02:14:53.056Z,917.99
2018-07-27T02:15:53.025Z,917.98
2018-07-27T02:16:52.995Z,918.00
2018-07-27T02:17:52.957Z,918.03
2018-07-27T02:18:52.948Z,918.03
2018-07-27T02:19:52.902Z,918.03
2018-07-27T02:20:52.876Z,918.02
2018-07-27T02:21:52.846Z,918.04
2018-07-27T02:22:52.819Z,918.06
2018-07-27T02:23:52.777Z,918.03
2018-07-27T02:24:52.769Z,918.05
2018-07-27T02:25:52.714Z,918.07
2018-07-27T02:26:52.678Z,918.05
2018-07-27T02:27:52.641Z,918.04
2018-07-27T02:28:52.618Z,918.09
2018-07-27T02:29:52.578Z,918.09
2018-07-27T02:30:52.547Z,918.08
2018-07-27T02:31:52.522Z,918.04
2018-07-27T02:32:52.645Z,918.06
2018-07-27T02:33:52.497Z,918.04
2018-07-27T02:34:52.415Z,918.04
2018-07-27T02:35:52.396Z,918.01
2018-07-27T02:36:52.352Z,918.02
2018-07-27T02:37:52.340Z,918.02
2018-07-27T02:38:52.297Z,917.97
2018-07-27T02:39:52.302Z,917.98
2018-07-27T02:40:52.226Z,917.95
2018-07-27T02:41:52.206Z,917.97
2018-07-27T02:42:52.167Z,917.97
2018-07-27T02:43:52.131Z,917.94
2018-07-27T02:44:52.093Z,917.91
2018-07-27T02:45:52.089Z,917.99
2018-07-27T02:46:52.024Z,917.96
2018-07-27T02:47:51.996Z,917.95
2018-07-27T02:48:51.965Z,917.95
2018-07-27T02:49:51.935Z,917.93
2018-07-27T02:50:51.899Z,917.98
2018-07-27T02:51:51.872Z,917.95
2018-07-27T02:52:51.847Z,917.94
2018-07-27T02:53:51.811Z,917.98
2018-07-27T02:54:51.771Z,917.95
2018-07-27T02:55:51.778Z,917.91
2018-07-27T02:56:51.718Z,917.92
2018-07-27T02:57:51.709Z,917.93
2018-07-27T02:58:51.647Z,917.91
2018-07-27T02:59:51.622Z,917.89
2018-07-27T03:00:51.585Z,917.89
2018-07-27T03:01:51.559Z,917.91
2018-07-27T03:02:51.512Z,917.90
2018-07-27T03:03:51.505Z,917.90
2018-07-27T03:04:51.607Z,917.90
2018-07-27T03:05:51.414Z,917.91
2018-07-27T03:06:51.395Z,917.91
2018-07-27T03:07:51.360Z,917.93
2018-07-27T03:08:51.337Z,917.90
2018-07-27T03:09:51.346Z,917.94
2018-07-27T03:10:51.412Z,917.93
2018-07-27T03:11:51.235Z,917.94
2018-07-27T03:12:51.200Z,917.90
2018-07-27T03:13:51.258Z,917.92
2018-07-27T03:14:51.129Z,917.91
2018-07-27T03:15:51.097Z,917.89
2018-07-27T03:16:51.060Z,917.91
2018-07-27T03:17:51.034Z,917.89
2018-07-27T03:18:51.008Z,917.90
2018-07-27T03:19:50.962Z,917.93
2018-07-27T03:20:50.944Z,917.92
2018-07-27T03:21:50.901Z,917.91
2018-07-27T03:22:50.865Z,917.86
2018-07-27T03:23:50.844Z,917.89
2018-07-27T03:24:50.807Z,917.89
2018-07-27T03:25:50.779Z,917.89
2018-07-27T03:26:50.752Z,917.85
2018-07-27T03:27:50.717Z,917.86
2018-07-27T03:28:50.708Z,917.85
2018-07-27T03:29:50.678Z,917.85
2018-07-27T03:30:50.622Z,917.85
2018-07-27T03:31:50.584Z,917.82
2018-07-27T03:32:50.567Z,917.81
2018-07-27T03:33:50.544Z,917.78
2018-07-27T03:34:50.485Z,917.77
2018-07-27T03:35:50.456Z,917.82
2018-07-27T03:36:50.616Z,917.83
2018-07-27T03:37:50.381Z,917.81
2018-07-27T03:38:50.360Z,917.80
2018-07-27T03:39:50.315Z,917.82
2018-07-27T03:40:50.302Z,917.79
2018-07-27T03:41:50.252Z,917.79
2018-07-27T03:42:50.232Z,917.78
2018-07-27T03:43:50.240Z,917.81
2018-07-27T03:44:50.161Z,917.83
2018-07-27T03:45:50.120Z,917.79
2018-07-27T03:46:50.082Z,917.75
2018-07-27T03:47:50.055Z,917.76
2018-07-27T03:48:50.029Z,917.71
2018-07-27T03:49:49.986Z,917.72
2018-07-27T03:50:49.967Z,917.66
2018-07-27T03:51:49.923Z,917.72
2018-07-27T03:52:49.898Z,917.69
2018-07-27T03:53:49.864Z,917.67
2018-07-27T03:54:49.828Z,917.68
2018-07-27T03:55:49.800Z,917.65
2018-07-27T03:56:49.865Z,917.66
2018-07-27T03:57:49.754Z,917.62
2018-07-27T03:58:49.703Z,917.61
2018-07-27T03:59:49.673Z,917.63
2018-07-27T04:00:49.638Z,917.62
2018-07-27T04:01:49.605Z,917.59
2018-07-27T04:02:49.564Z,917.62
2018-07-27T04:03:49.748Z,917.63
2018-07-27T04:04:49.505Z,917.60
2018-07-27T04:05:49.466Z,917.60
2018-07-27T04:06:49.447Z,917.58
2018-07-27T04:07:49.405Z,917.58
2018-07-27T04:08:49.378Z,917.56
2018-07-27T04:09:49.709Z,917.57
2018-07-27T04:10:49.309Z,917.55
2018-07-27T04:11:49.294Z,917.54
2018-07-27T04:12:49.248Z,917.51
2018-07-27T04:13:49.223Z,917.50
2018-07-27T04:14:49.228Z,917.52
2018-07-27T04:15:49.143Z,917.53
2018-07-27T04:16:49.114Z,917.52
2018-07-27T04:17:49.081Z,917.46
2018-07-27T04:18:49.042Z,917.49
2018-07-27T04:19:49.038Z,917.48
2018-07-27T04:20:48.976Z,917.47
2018-07-27T04:21:48.945Z,917.45
2018-07-27T04:22:48.942Z,917.44
2018-07-27T04:23:48.879Z,917.44
2018-07-27T04:24:48.851Z,917.41
2018-07-27T04:25:48.811Z,917.41
2018-07-27T04:26:48.786Z,917.39
2018-07-27T04:27:48.754Z,917.43
2018-07-27T04:28:48.727Z,917.43
2018-07-27T04:29:48.683Z,917.43
2018-07-27T04:30:48.664Z,917.43
2018-07-27T04:31:48.617Z,917.42
2018-07-27T04:32:48.581Z,917.44
2018-07-27T04:33:48.551Z,917.43
2018-07-27T04:34:48.515Z,917.42
2018-07-27T04:35:48.524Z,917.40
2018-07-27T04:36:48.608Z,917.41
2018-07-27T04:37:48.422Z,917.39
2018-07-27T04:38:48.405Z,917.39
2018-07-27T04:39:48.351Z,917.40
2018-07-27T04:40:48.322Z,917.39
2018-07-27T04:41:48.290Z,917.40
2018-07-27T04:42:48.445Z,917.40
2018-07-27T04:43:48.234Z,917.41
2018-07-27T04:44:48.192Z,917.44
2018-07-27T04:45:48.155Z,917.41
2018-07-27T04:46:48.127Z,917.39
2018-07-27T04:47:48.089Z,917.40
2018-07-27T04:48:48.055Z,917.40
2018-07-27T04:49:48.025Z,917.36
2018-07-27T04:50:47.987Z,917.37
2018-07-27T04:51:47.956Z,917.38
2018-07-27T04:52:47.938Z,917.36
2018-07-27T04:53:47.895Z,917.40
2018-07-27T04:54:47.866Z,917.36
2018-07-27T04:55:47.826Z,917.38
2018-07-27T04:56:47.814Z,917.33
2018-07-27T04:57:47.765Z,917.32
2018-07-27T04:58:47.725Z,917.30
2018-07-27T04:59:47.692Z,917.26
2018-07-27T05:00:47.665Z,917.28
2018-07-27T05:01:47.630Z,917.29
2018-07-27T05:02:47.593Z,917.27
2018-07-27T05:03:47.759Z,917.25
2018-07-27T05:04:47.619Z,917.22
2018-07-27T05:05:47.495Z,917.21
2018-07-27T05:06:47.467Z,917.21
2018-07-27T05:07:47.426Z,917.21
2018-07-27T05:08:47.428Z,917.20
2018-07-27T05:09:47.366Z,917.23
2018-07-27T05:10:47.341Z,917.24
2018-07-27T05:11:47.316Z,917.24
2018-07-27T05:12:47.266Z,917.19
2018-07-27T05:13:47.229Z,917.21
2018-07-27T05:14:47.198Z,917.25
2018-07-27T05:15:47.178Z,917.22
2018-07-27T05:16:47.132Z,917.18
2018-07-27T05:17:47.097Z,917.21
2018-07-27T05:18:47.069Z,917.18
2018-07-27T05:19:47.042Z,917.18
2018-07-27T05:20:46.999Z,917.17
2018-07-27T05:21:46.968Z,917.16
2018-07-27T05:22:46.934Z,917.19
2018-07-27T05:23:46.901Z,917.13
2018-07-27T05:24:46.873Z,917.12
2018-07-27T05:25:46.837Z,917.12
2018-07-27T05:26:46.798Z,917.09
2018-07-27T05:27:46.776Z,917.08
2018-07-27T05:28:46.733Z,917.08
2018-07-27T05:29:46.704Z,917.12
2018-07-27T05:30:46.670Z,917.06
2018-07-27T05:31:46.645Z,917.06
2018-07-27T05:32:46.606Z,917.09
2018-07-27T05:33:46.575Z,917.05
2018-07-27T05:34:46.550Z,917.04
2018-07-27T05:35:46.805Z,917.00
2018-07-27T05:36:46.472Z,916.98
2018-07-27T05:37:46.439Z,917.02
2018-07-27T05:38:46.403Z,916.98
2018-07-27T05:39:46.369Z,917.01
2018-07-27T05:40:46.348Z,916.96
2018-07-27T05:41:46.706Z,916.95
2018-07-27T05:42:46.275Z,916.96
2018-07-27T05:43:46.243Z,916.98
2018-07-27T05:44:46.208Z,917.00
2018-07-27T05:45:46.175Z,916.98
2018-07-27T05:46:46.139Z,916.98
2018-07-27T05:47:46.259Z,916.94
2018-07-27T05:48:46.144Z,916.95
2018-07-27T05:49:46.053Z,916.99
2018-07-27T05:50:46.004Z,916.95
2018-07-27T05:51:45.973Z,916.96
2018-07-27T05:52:46.012Z,916.93
2018-07-27T05:53:45.906Z,916.94
2018-07-27T05:54:45.871Z,916.96
2018-07-27T05:55:45.845Z,916.98
2018-07-27T05:56:45.804Z,916.99
2018-07-27T05:57:45.775Z,916.96
2018-07-27T05:58:45.741Z,916.99
2018-07-27T05:59:45.706Z,917.01
2018-07-27T06:00:45.675Z,916.98
2018-07-27T06:01:45.666Z,917.00
2018-07-27T06:02:45.696Z,917.00
2018-07-27T06:03:45.776Z,916.98
2018-07-27T06:04:45.551Z,916.98
2018-07-27T06:05:45.505Z,916.97
2018-07-27T06:06:45.478Z,916.94
2018-07-27T06:07:45.442Z,916.98
2018-07-27T06:08:45.413Z,916.93
2018-07-27T06:09:45.576Z,916.89
2018-07-27T06:10:45.338Z,916.91
2018-07-27T06:11:45.310Z,916.87
2018-07-27T06:12:45.274Z,916.87
2018-07-27T06:13:45.241Z,916.87
2018-07-27T06:14:45.212Z,916.86
2018-07-27T06:15:45.174Z,916.84
2018-07-27T06:16:45.141Z,916.83
2018-07-27T06:17:45.163Z,916.83
2018-07-27T06:18:45.074Z,916.85
2018-07-27T06:19:45.042Z,916.85
2018-07-27T06:20:45.007Z,916.79
2018-07-27T06:21:44.973Z,916.84
2018-07-27T06:22:44.941Z,916.81
2018-07-27T06:23:44.936Z,916.84
2018-07-27T06:24:44.920Z,916.78
2018-07-27T06:25:44.841Z,916.82
2018-07-27T06:26:44.810Z,916.79
2018-07-27T06:27:44.773Z,916.79
2018-07-27T06:28:44.746Z,916.77
2018-07-27T06:29:44.707Z,916.74
2018-07-27T06:30:44.674Z,916.77
2018-07-27T06:31:44.650Z,916.74
2018-07-27T06:32:44.607Z,916.76
2018-07-27T06:33:44.574Z,916.77
2018-07-27T06:34:44.541Z,916.75
2018-07-27T06:35:44.709Z,916.73
2018-07-27T06:36:44.474Z,916.78
2018-07-27T06:37:44.442Z,916.78
2018-07-27T06:38:44.408Z,916.76
2018-07-27T06:39:44.376Z,916.74
2018-07-27T06:40:44.339Z,916.77
2018-07-27T06:41:44.532Z,916.76
2018-07-27T06:42:44.277Z,916.75
2018-07-27T06:43:44.242Z,916.72
2018-07-27T06:44:44.208Z,916.73
2018-07-27T06:45:44.185Z,916.76
2018-07-27T06:46:44.146Z,916.75
2018-07-27T06:47:44.108Z,916.78
2018-07-27T06:48:44.076Z,916.77
2018-07-27T06:49:44.045Z,916.78
2018-07-27T06:50:44.007Z,916.77
2018-07-27T06:51:43.972Z,916.75
2018-07-27T06:52:43.944Z,916.75
2018-07-27T06:53:43.911Z,916.74
2018-07-27T06:54:43.880Z,916.69
2018-07-27T06:55:43.846Z,916.70
2018-07-27T06:56:43.818Z,916.71
2018-07-27T06:57:43.798Z,916.69
2018-07-27T06:58:43.745Z,916.72
2018-07-27T06:59:43.708Z,916.71
2018-07-27T07:00:43.674Z,916.71
2018-07-27T07:01:43.643Z,916.67
2018-07-27T07:02:43.619Z,916.69
2018-07-27T07:03:43.580Z,916.67
2018-07-27T07:04:43.538Z,916.74
2018-07-27T07:05:43.504Z,916.70
2018-07-27T07:06:43.471Z,916.72
2018-07-27T07:07:43.467Z,916.74
2018-07-27T07:08:43.406Z,916.74
2018-07-27T07:09:43.380Z,916.77
2018-07-27T07:10:43.339Z,916.75
2018-07-27T07:11:43.311Z,916.79
2018-07-27T07:12:43.280Z,916.78
2018-07-27T07:13:43.244Z,916.79
2018-07-27T07:14:43.204Z,916.75
2018-07-27T07:15:43.178Z,916.75
2018-07-27T07:16:43.143Z,916.75
2018-07-27T07:17:43.104Z,916.74
2018-07-27T07:18:43.070Z,916.76
2018-07-27T07:19:43.038Z,916.76
2018-07-27T07:20:43.009Z,916.78
2018-07-27T07:21:42.971Z,916.77
2018-07-27T07:22:42.937Z,916.79
2018-07-27T07:23:42.909Z,916.74
2018-07-27T07:24:42.880Z,916.76
2018-07-27T07:25:42.977Z,916.75
2018-07-27T07:26:42.799Z,916.77
2018-07-27T07:28:42.742Z,916.71
2018-07-27T07:29:42.701Z,916.68
2018-07-27T07:30:42.668Z,916.72
2018-07-27T07:31:42.637Z,916.70
2018-07-27T07:32:42.605Z,916.75
2018-07-27T07:33:42.568Z,916.75
2018-07-27T07:34:42.532Z,916.78
2018-07-27T07:35:42.502Z,916.76
2018-07-27T07:36:42.469Z,916.80
2018-07-27T07:37:42.438Z,916.84
2018-07-27T07:38:42.403Z,916.83
2018-07-27T07:39:42.364Z,916.83
2018-07-27T07:40:42.344Z,916.81
2018-07-27T07:41:42.298Z,916.81
2018-07-27T07:42:42.265Z,916.87
2018-07-27T07:43:42.240Z,916.83
2018-07-27T07:44:42.197Z,916.82
2018-07-27T07:45:42.169Z,916.85
2018-07-27T07:46:42.133Z,916.93
2018-07-27T07:47:42.103Z,916.85
2018-07-27T07:48:42.063Z,916.91
2018-07-27T07:49:42.029Z,916.89
2018-07-27T07:50:41.998Z,916.89
2018-07-27T07:51:41.967Z,916.88
2018-07-27T07:52:41.933Z,916.91
2018-07-27T07:53:41.897Z,916.93
2018-07-27T07:54:41.863Z,916.96
2018-07-27T07:55:41.826Z,917.00
2018-07-27T07:56:41.797Z,916.98
2018-07-27T07:57:41.771Z,917.02
2018-07-27T07:58:41.767Z,917.00
2018-07-27T07:59:41.701Z,917.03
2018-07-27T08:00:41.662Z,917.02
2018-07-27T08:01:41.630Z,917.00
2018-07-27T08:02:41.590Z,916.98
2018-07-27T08:03:41.556Z,916.96
2018-07-27T08:04:41.525Z,916.94
2018-07-27T08:05:41.555Z,916.99
2018-07-27T08:06:41.460Z,916.96
2018-07-27T08:07:41.424Z,917.02
2018-07-27T08:08:41.388Z,917.06
2018-07-27T08:09:41.819Z,917.03
2018-07-27T08:10:41.365Z,917.02
2018-07-27T08:11:41.287Z,917.01
2018-07-27T08:12:41.262Z,916.99
2018-07-27T08:13:41.222Z,917.00
2018-07-27T08:14:41.187Z,917.01
2018-07-27T08:15:41.203Z,916.94
2018-07-27T08:16:41.120Z,917.00
2018-07-27T08:17:41.094Z,916.98
2018-07-27T08:18:41.052Z,916.99
2018-07-27T08:19:41.021Z,916.98
2018-07-27T08:20:40.987Z,916.98
2018-07-27T08:21:40.976Z,917.01
2018-07-27T08:22:40.917Z,917.01
2018-07-27T08:23:40.883Z,917.01
2018-07-27T08:24:40.854Z,917.02
2018-07-27T08:25:40.815Z,917.00
2018-07-27T08:26:41.180Z,916.99
2018-07-27T08:27:40.752Z,917.01
2018-07-27T08:28:40.715Z,917.01
2018-07-27T08:29:40.682Z,916.99
2018-07-27T08:30:40.649Z,917.03
2018-07-27T08:31:40.611Z,917.04
2018-07-27T08:32:40.627Z,917.04
2018-07-27T08:33:40.547Z,917.05
2018-07-27T08:34:40.511Z,917.05
2018-07-27T08:35:40.479Z,917.06
2018-07-27T08:36:40.445Z,917.06
2018-07-27T08:37:40.414Z,917.07
2018-07-27T08:38:40.374Z,917.09
2018-07-27T08:39:40.392Z,917.11
2018-07-27T08:40:40.309Z,917.12
2018-07-27T08:41:40.277Z,917.13
2018-07-27T08:42:40.243Z,917.13
2018-07-27T08:43:40.206Z,917.11
2018-07-27T08:44:40.181Z,917.09
2018-07-27T08:45:40.136Z,917.10
2018-07-27T08:46:40.106Z,917.09
2018-07-27T08:47:40.077Z,917.09
2018-07-27T08:48:40.036Z,917.06
2018-07-27T08:49:40.003Z,917.08
2018-07-27T08:50:39.983Z,917.08
2018-07-27T08:51:39.939Z,917.07
2018-07-27T08:52:40.164Z,917.09
2018-07-27T08:53:39.874Z,917.09
2018-07-27T08:54:39.840Z,917.10
2018-07-27T08:55:39.802Z,917.10
2018-07-27T08:56:39.766Z,917.10
2018-07-27T08:57:39.743Z,917.15
2018-07-27T08:58:39.705Z,917.12
2018-07-27T08:59:39.665Z,917.16
2018-07-27T09:00:39.630Z,917.13
2018-07-27T09:01:39.601Z,917.18
2018-07-27T09:02:39.572Z,917.13
2018-07-27T09:03:39.539Z,917.16
2018-07-27T09:04:39.495Z,917.19
2018-07-27T09:05:39.461Z,917.18
2018-07-27T09:06:39.425Z,917.22
2018-07-27T09:07:39.394Z,917.26
2018-07-27T09:08:39.358Z,917.28
2018-07-27T09:09:39.329Z,917.30
2018-07-27T09:10:39.290Z,917.28
2018-07-27T09:11:39.256Z,917.29
2018-07-27T09:12:39.226Z,917.32
2018-07-27T09:13:39.194Z,917.28
2018-07-27T09:14:39.169Z,917.32
2018-07-27T09:15:39.127Z,917.35
2018-07-27T09:16:39.088Z,917.36
2018-07-27T09:17:39.056Z,917.37
2018-07-27T09:18:39.021Z,917.39
2018-07-27T09:19:38.997Z,917.37
2018-07-27T09:20:38.951Z,917.38
2018-07-27T09:21:38.917Z,917.42
2018-07-27T09:22:38.886Z,917.38
2018-07-27T09:23:38.850Z,917.35
2018-07-27T09:24:39.007Z,917.42
2018-07-27T09:25:38.784Z,917.36
2018-07-27T09:26:38.758Z,917.32
2018-07-27T09:27:38.718Z,917.37
2018-07-27T09:28:38.687Z,917.34
2018-07-27T09:29:38.648Z,917.40
2018-07-27T09:30:38.625Z,917.37
2018-07-27T09:31:38.581Z,917.37
2018-07-27T09:32:38.546Z,917.42
2018-07-27T09:33:38.511Z,917.43
2018-07-27T09:34:38.476Z,917.42
2018-07-27T09:35:38.441Z,917.41
2018-07-27T09:36:38.409Z,917.44
2018-07-27T09:37:38.379Z,917.46
2018-07-27T09:38:38.341Z,917.45
2018-07-27T09:39:38.324Z,917.48
2018-07-27T09:40:38.294Z,917.46
2018-07-27T09:41:38.243Z,917.47
2018-07-27T09:42:38.204Z,917.49
2018-07-27T09:43:38.175Z,917.52
2018-07-27T09:44:38.139Z,917.50
2018-07-27T09:45:38.112Z,917.51
2018-07-27T09:46:38.142Z,917.51
2018-07-27T09:47:38.050Z,917.54
2018-07-27T09:48:38.003Z,917.60
2018-07-27T09:49:37.968Z,917.63
2018-07-27T09:50:37.931Z,917.61
2018-07-27T09:51:37.899Z,917.60
2018-07-27T09:52:37.870Z,917.65
2018-07-27T09:53:37.837Z,917.68
2018-07-27T09:54:37.793Z,917.68
2018-07-27T09:55:37.761Z,917.74
2018-07-27T09:56:37.886Z,917.68
2018-07-27T09:57:37.696Z,917.69
2018-07-27T09:58:37.659Z,917.69
2018-07-27T09:59:37.626Z,917.76
2018-07-27T10:00:37.599Z,917.77
2018-07-27T10:01:37.557Z,917.83
2018-07-27T10:02:37.523Z,917.86
2018-07-27T10:03:37.488Z,917.87
2018-07-27T10:04:37.467Z,917.87
2018-07-27T10:05:37.423Z,917.86
2018-07-27T10:06:37.386Z,917.84
2018-07-27T10:07:37.370Z,917.94
2018-07-27T10:08:37.325Z,917.96
2018-07-27T10:09:37.289Z,917.92
2018-07-27T10:10:37.251Z,917.93
2018-07-27T10:11:37.216Z,917.90
2018-07-27T10:12:37.189Z,917.94
2018-07-27T10:13:37.152Z,917.99
2018-07-27T10:14:37.113Z,917.94
2018-07-27T10:15:37.085Z,918.01
2018-07-27T10:16:37.048Z,918.00
2018-07-27T10:17:37.016Z,918.05
2018-07-27T10:18:37.022Z,918.09
2018-07-27T10:19:36.945Z,918.08
2018-07-27T10:20:36.933Z,918.09
2018-07-27T10:21:36.882Z,918.06
2018-07-27T10:22:36.853Z,918.09
2018-07-27T10:23:36.816Z,918.04
2018-07-27T10:24:36.779Z,918.05
2018-07-27T10:25:36.744Z,918.05
2018-07-27T10:26:36.710Z,918.00
2018-07-27T10:27:36.674Z,918.03
2018-07-27T10:28:36.639Z,918.04
2018-07-27T10:29:36.607Z,918.02
2018-07-27T10:30:36.574Z,918.00
2018-07-27T10:31:36.550Z,918.01
2018-07-27T10:32:36.505Z,918.00
2018-07-27T10:33:36.487Z,918.02
2018-07-27T10:34:36.442Z,918.03
2018-07-27T10:35:36.402Z,917.99
2018-07-27T10:36:36.376Z,918.02
2018-07-27T10:37:36.555Z,918.00
2018-07-27T10:38:36.351Z,917.98
2018-07-27T10:39:36.305Z,917.98
2018-07-27T10:40:36.239Z,917.98
2018-07-27T10:41:36.202Z,917.99
2018-07-27T10:42:36.169Z,918.00
2018-07-27T10:43:37.356Z,918.02
2018-07-27T10:44:36.106Z,918.02
2018-07-27T10:45:36.074Z,918.05
2018-07-27T10:46:36.034Z,918.03
2018-07-27T10:47:36.005Z,918.05
2018-07-27T10:48:35.971Z,918.03
2018-07-27T10:49:35.939Z,918.06
2018-07-27T10:50:35.902Z,918.09
2018-07-27T10:51:35.900Z,918.14
2018-07-27T10:52:35.834Z,918.09
2018-07-27T10:53:35.807Z,918.15
2018-07-27T10:54:35.773Z,918.15
2018-07-27T10:55:35.888Z,918.14
2018-07-27T10:56:35.703Z,918.16
2018-07-27T10:57:35.673Z,918.14
2018-07-27T10:58:35.636Z,918.08
2018-07-27T10:59:35.614Z,918.06
2018-07-27T11:00:35.585Z,918.06
2018-07-27T11:01:35.844Z,918.07
2018-07-27T11:02:35.506Z,918.08
2018-07-27T11:03:35.472Z,918.07
2018-07-27T11:04:35.440Z,918.09
2018-07-27T11:05:35.412Z,918.08
2018-07-27T11:06:35.400Z,918.04
2018-07-27T11:08:35.314Z,918.06
2018-07-27T11:09:35.276Z,918.06
2018-07-27T11:10:35.243Z,918.11
2018-07-27T11:11:35.205Z,918.12
2018-07-27T11:12:35.386Z,918.12
2018-07-27T11:13:35.373Z,918.13
2018-07-27T11:14:35.112Z,918.16
2018-07-27T11:15:35.084Z,918.16
2018-07-27T11:16:35.125Z,918.18
2018-07-27T11:17:35.093Z,918.18
2018-07-27T11:18:35.053Z,918.19
2018-07-27T11:19:34.948Z,918.22
2018-07-27T11:20:34.939Z,918.20
2018-07-27T11:21:34.880Z,918.19
2018-07-27T11:22:34.850Z,918.19
2018-07-27T11:23:34.840Z,918.21
2018-07-27T11:24:34.788Z,918.22
2018-07-27T11:25:34.791Z,918.14
2018-07-27T11:26:34.717Z,918.16
2018-07-27T11:27:34.687Z,918.14
2018-07-27T11:28:34.706Z,918.20
2018-07-27T11:29:34.648Z,918.20
2018-07-27T11:30:34.591Z,918.23
2018-07-27T11:31:34.569Z,918.23
2018-07-27T11:32:34.532Z,918.26
2018-07-27T11:33:34.495Z,918.28
2018-07-27T11:34:34.618Z,918.19
2018-07-27T11:35:34.430Z,918.19
2018-07-27T11:36:34.397Z,918.19
2018-07-27T11:37:34.370Z,918.23
2018-07-27T11:38:34.336Z,918.24
2018-07-27T11:39:34.657Z,918.28
2018-07-27T11:40:34.277Z,918.29
2018-07-27T11:41:34.240Z,918.31
2018-07-27T11:42:34.211Z,918.33
2018-07-27T11:43:34.180Z,918.32
2018-07-27T11:44:34.150Z,918.28
2018-07-27T11:45:34.168Z,918.23
2018-07-27T11:46:34.080Z,918.25
2018-07-27T11:47:34.058Z,918.25
2018-07-27T11:48:34.017Z,918.29
2018-07-27T11:49:34.076Z,918.33
2018-07-27T11:50:33.952Z,918.34
2018-07-27T11:51:33.924Z,918.30
2018-07-27T11:52:33.889Z,918.32
2018-07-27T11:53:33.866Z,918.30
2018-07-27T11:54:33.826Z,918.30
2018-07-27T11:55:33.798Z,918.28
2018-07-27T11:56:34.069Z,918.35
2018-07-27T11:57:33.735Z,918.36
2018-07-27T11:58:33.708Z,918.31
2018-07-27T11:59:33.675Z,918.36
2018-07-27T12:00:33.644Z,918.32
2018-07-27T12:01:33.618Z,918.35
2018-07-27T12:02:33.576Z,918.34
2018-07-27T12:03:33.542Z,918.37
2018-07-27T12:04:33.514Z,918.36
2018-07-27T12:05:33.484Z,918.35
2018-07-27T12:06:33.447Z,918.37
2018-07-27T12:07:33.421Z,918.39
2018-07-27T12:08:33.385Z,918.38
2018-07-27T12:09:33.353Z,918.38
2018-07-27T12:10:33.325Z,918.36
2018-07-27T12:11:33.297Z,918.38
2018-07-27T12:12:33.274Z,918.33
2018-07-27T12:13:33.231Z,918.40
2018-07-27T12:14:33.365Z,918.42
2018-07-27T12:15:33.176Z,918.38
2018-07-27T12:16:33.140Z,918.34
2018-07-27T12:17:33.105Z,918.40
2018-07-27T12:18:33.075Z,918.36
2018-07-27T12:19:33.076Z,918.38
2018-07-27T12:20:33.100Z,918.41
2018-07-27T12:21:33.165Z,918.40
2018-07-27T12:22:32.949Z,918.36
2018-07-27T12:23:32.944Z,918.40
2018-07-27T12:24:32.917Z,918.39
2018-07-27T12:25:32.859Z,918.40
2018-07-27T12:26:32.837Z,918.42
2018-07-27T12:27:32.807Z,918.41
2018-07-27T12:28:32.927Z,918.46
2018-07-27T12:29:32.753Z,918.45
2018-07-27T12:30:32.727Z,918.42
2018-07-27T12:31:32.676Z,918.49
2018-07-27T12:32:32.667Z,918.46